Time;durP1;ratioP1;P1;durP2;ratioP2;P2;SDS_P1;SDS_P2;PMS_P1;PMS_P2;Temp;Humidity;BMP_temperature;BMP_pressure;BME280_temperature;BME280_humidity;BME280_pressure;Samples;Min_cycle;Max_cycle;Signal;HPM_P1;HPM_P2
2023/03/23 00:00:46;;;;;;;11.88;8.07;;;;;;;;;;5014776;28;20137;-82
2023/03/23 00:03:12;;;;;;;14.00;8.40;;;;;;;;;;4999504;28;20046;-82
2023/03/23 00:05:41;;;;;;;11.45;8.45;;;;;;;;;;5001205;28;20029;-82
2023/03/23 00:08:08;;;;;;;15.05;8.15;;;;;;;;;;4998334;28;20057;-82
2023/03/23 00:10:36;;;;;;;13.48;8.57;;;;;;;;;;5014750;28;20029;-82
2023/03/23 00:13:02;;;;;;;14.88;8.95;;;;;;;;;;5014425;28;20022;-82
2023/03/23 00:15:33;;;;;;;12.65;8.65;;;;;;;;;;4999016;28;20029;-82
2023/03/23 00:18:02;;;;;;;14.63;9.13;;;;;;;;;;5005068;28;20022;-81
2023/03/23 00:20:29;;;;;;;11.70;8.30;;;;;;;;;;5012584;28;20026;-82
2023/03/23 00:22:59;;;;;;;12.35;8.27;;;;;;;;;;5001524;28;20030;-82
2023/03/23 00:25:25;;;;;;;10.70;7.38;;;;;;;;;;5004966;28;20064;-82
2023/03/23 00:27:52;;;;;;;12.23;8.43;;;;;;;;;;4998667;28;20022;-82
2023/03/23 00:30:18;;;;;;;10.52;7.82;;;;;;;;;;4999136;28;20037;-82
2023/03/23 00:32:44;;;;;;;12.82;7.55;;;;;;;;;;5037529;28;20029;-82
2023/03/23 00:35:10;;;;;;;12.82;8.88;;;;;;;;;;5018718;28;20111;-82
2023/03/23 00:37:36;;;;;;;15.43;8.45;;;;;;;;;;5003763;28;20034;-82
2023/03/23 00:40:06;;;;;;;12.73;9.23;;;;;;;;;;4998629;28;20026;-82
2023/03/23 00:42:36;;;;;;;12.15;8.48;;;;;;;;;;4997895;28;20090;-82
2023/03/23 00:45:06;;;;;;;12.50;8.73;;;;;;;;;;5030979;28;20030;-82
2023/03/23 00:47:35;;;;;;;13.45;9.38;;;;;;;;;;5027513;28;20085;-82
2023/03/23 00:50:02;;;;;;;14.02;8.98;;;;;;;;;;5016535;28;20048;-82
2023/03/23 00:52:28;;;;;;;12.35;8.48;;;;;;;;;;5016183;28;20025;-82
2023/03/23 00:54:54;;;;;;;10.82;8.18;;;;;;;;;;5000842;28;20504;-82
2023/03/23 00:57:23;;;;;;;13.20;8.13;;;;;;;;;;5010064;28;20030;-82
2023/03/23 00:59:49;;;;;;;13.05;8.68;;;;;;;;;;5006059;28;20504;-82
2023/03/23 01:02:16;;;;;;;13.60;9.30;;;;;;;;;;5000290;28;20129;-82
2023/03/23 01:04:44;;;;;;;14.77;9.00;;;;;;;;;;5000581;28;20110;-82
2023/03/23 01:07:12;;;;;;;12.02;9.18;;;;;;;;;;4997432;28;20069;-82
2023/03/23 01:09:44;;;;;;;11.35;8.32;;;;;;;;;;5007992;28;20033;-81
2023/03/23 01:12:10;;;;;;;13.40;8.65;;;;;;;;;;5015947;28;20025;-82
2023/03/23 01:14:36;;;;;;;13.85;9.20;;;;;;;;;;5005981;28;20053;-81
2023/03/23 01:17:02;;;;;;;13.73;9.15;;;;;;;;;;5006855;28;20031;-82
2023/03/23 01:19:28;;;;;;;12.88;8.98;;;;;;;;;;5018014;28;20111;-81
2023/03/23 01:21:54;;;;;;;12.38;8.15;;;;;;;;;;5001525;28;20026;-82
2023/03/23 01:24:20;;;;;;;12.63;8.60;;;;;;;;;;5003114;28;20070;-82
2023/03/23 01:26:46;;;;;;;12.15;8.38;;;;;;;;;;5008944;28;20034;-82
2023/03/23 01:29:13;;;;;;;13.32;8.10;;;;;;;;;;5014693;28;20399;-82
2023/03/23 01:31:39;;;;;;;10.90;7.22;;;;;;;;;;4997966;28;20114;-82
2023/03/23 01:34:05;;;;;;;13.10;9.27;;;;;;;;;;4998054;28;20037;-82
2023/03/23 01:36:35;;;;;;;11.55;8.38;;;;;;;;;;5001592;28;20037;-82
2023/03/23 01:39:03;;;;;;;12.70;8.30;;;;;;;;;;5017198;28;20165;-82
2023/03/23 01:41:29;;;;;;;13.45;8.93;;;;;;;;;;5004359;28;20471;-81
2023/03/23 01:44:03;;;;;;;12.45;8.45;;;;;;;;;;5003230;28;20025;-82
2023/03/23 01:46:30;;;;;;;14.05;8.73;;;;;;;;;;5012694;28;20604;-82
2023/03/23 01:48:58;;;;;;;12.70;8.27;;;;;;;;;;5003749;28;20036;-82
2023/03/23 01:51:25;;;;;;;12.13;8.65;;;;;;;;;;5016970;28;20030;-82
2023/03/23 01:53:59;;;;;;;13.10;8.57;;;;;;;;;;5007989;28;20030;-82
2023/03/23 01:56:29;;;;;;;12.13;7.55;;;;;;;;;;5011975;28;20120;-82
2023/03/23 01:58:56;;;;;;;12.45;8.15;;;;;;;;;;5013520;28;20032;-82
2023/03/23 02:01:24;;;;;;;11.98;8.10;;;;;;;;;;5004040;28;20018;-82
2023/03/23 02:03:52;;;;;;;11.75;8.35;;;;;;;;;;5006580;28;20053;-81
2023/03/23 02:06:18;;;;;;;12.35;8.13;;;;;;;;;;5012737;28;20034;-81
2023/03/23 02:08:44;;;;;;;12.77;8.95;;;;;;;;;;5015688;28;20049;-82
2023/03/23 02:11:15;;;;;;;12.07;8.20;;;;;;;;;;5012178;28;20501;-82
2023/03/23 02:13:41;;;;;;;11.32;8.20;;;;;;;;;;5023523;28;20052;-82
2023/03/23 02:16:14;;;;;;;13.45;8.68;;;;;;;;;;5024850;28;20026;-82
2023/03/23 02:18:47;;;;;;;14.63;9.30;;;;;;;;;;5021287;28;20022;-82
2023/03/23 02:21:32;;;;;;;14.23;8.85;;;;;;;;;;5015544;28;20033;-82
2023/03/23 02:24:16;;;;;;;12.90;8.75;;;;;;;;;;5018408;28;20018;-82
2023/03/23 02:26:51;;;;;;;11.45;8.20;;;;;;;;;;5001331;28;20084;-82
2023/03/23 02:29:32;;;;;;;15.45;9.45;;;;;;;;;;5001355;28;20034;-82
2023/03/23 02:32:17;;;;;;;14.10;8.52;;;;;;;;;;5000102;28;20080;-82
2023/03/23 02:34:47;;;;;;;13.10;8.63;;;;;;;;;;5010632;28;20030;-82
2023/03/23 02:37:18;;;;;;;14.50;8.50;;;;;;;;;;5002228;28;20022;-82
2023/03/23 02:39:46;;;;;;;13.55;9.27;;;;;;;;;;5006840;28;20101;-82
2023/03/23 02:42:15;;;;;;;14.20;9.15;;;;;;;;;;5012081;28;20061;-81
2023/03/23 02:44:43;;;;;;;12.60;8.32;;;;;;;;;;5004989;28;20079;-82
2023/03/23 02:47:12;;;;;;;12.13;8.60;;;;;;;;;;5019884;28;20022;-81
2023/03/23 02:49:40;;;;;;;11.73;8.35;;;;;;;;;;5013151;28;20117;-82
2023/03/23 02:52:13;;;;;;;13.70;8.30;;;;;;;;;;5019076;28;20026;-82
2023/03/23 02:54:40;;;;;;;13.13;8.88;;;;;;;;;;5020127;28;20033;-82
2023/03/23 02:57:06;;;;;;;12.48;8.88;;;;;;;;;;5003140;28;20023;-82
2023/03/23 02:59:32;;;;;;;13.82;9.27;;;;;;;;;;5007669;28;20030;-82
2023/03/23 03:02:07;;;;;;;13.93;8.77;;;;;;;;;;5004840;28;20459;-82
2023/03/23 03:04:34;;;;;;;12.90;8.35;;;;;;;;;;5003951;28;20105;-81
2023/03/23 03:07:15;;;;;;;13.88;9.10;;;;;;;;;;5005329;28;20042;-81
2023/03/23 03:10:00;;;;;;;12.38;8.55;;;;;;;;;;5004191;28;20030;-82
2023/03/23 03:12:40;;;;;;;12.48;8.82;;;;;;;;;;5003913;28;20080;-82
2023/03/23 03:15:09;;;;;;;13.25;8.60;;;;;;;;;;5015796;28;20038;-82
2023/03/23 03:17:39;;;;;;;13.55;9.25;;;;;;;;;;5000609;28;20030;-81
2023/03/23 03:20:09;;;;;;;13.48;9.10;;;;;;;;;;5002023;28;20088;-82
2023/03/23 03:22:37;;;;;;;13.68;8.93;;;;;;;;;;5001105;28;20015;-82
2023/03/23 03:25:03;;;;;;;14.02;9.35;;;;;;;;;;5001278;28;20529;-82
2023/03/23 03:27:31;;;;;;;13.65;8.98;;;;;;;;;;5004887;28;20030;-82
2023/03/23 03:29:59;;;;;;;14.55;9.40;;;;;;;;;;5010058;28;20022;-82
2023/03/23 03:32:30;;;;;;;11.68;8.02;;;;;;;;;;5005235;28;20072;-82
2023/03/23 03:34:57;;;;;;;14.90;9.43;;;;;;;;;;4998295;28;20110;-82
2023/03/23 03:37:23;;;;;;;15.02;9.38;;;;;;;;;;5012868;28;20547;-82
2023/03/23 03:39:49;;;;;;;13.60;9.18;;;;;;;;;;4999993;28;20109;-82
2023/03/23 03:42:15;;;;;;;13.40;9.43;;;;;;;;;;5008892;28;20029;-82
2023/03/23 03:44:41;;;;;;;13.43;9.18;;;;;;;;;;4998299;28;20509;-82
2023/03/23 03:47:07;;;;;;;14.45;9.68;;;;;;;;;;5014683;28;20029;-82
2023/03/23 03:49:33;;;;;;;13.30;8.95;;;;;;;;;;5017277;28;20030;-82
2023/03/23 03:51:59;;;;;;;15.20;9.68;;;;;;;;;;5005956;28;20073;-82
2023/03/23 03:54:25;;;;;;;12.07;8.80;;;;;;;;;;5004790;28;20038;-82
2023/03/23 03:56:51;;;;;;;14.05;9.27;;;;;;;;;;5014827;28;20022;-82
2023/03/23 03:59:18;;;;;;;15.77;9.25;;;;;;;;;;5008225;28;20026;-82
2023/03/23 04:01:43;;;;;;;15.43;9.07;;;;;;;;;;5013040;28;20050;-82
2023/03/23 04:04:09;;;;;;;14.68;9.45;;;;;;;;;;5019000;28;20479;-81
2023/03/23 04:06:37;;;;;;;15.93;10.10;;;;;;;;;;5018141;28;20041;-82
2023/03/23 04:09:05;;;;;;;13.40;8.65;;;;;;;;;;5014752;28;20029;-82
2023/03/23 04:11:32;;;;;;;14.38;8.93;;;;;;;;;;5016409;28;20457;-82
2023/03/23 04:13:58;;;;;;;13.07;9.55;;;;;;;;;;5017259;28;20033;-82
2023/03/23 04:16:26;;;;;;;15.10;9.23;;;;;;;;;;5012342;28;20092;-82
2023/03/23 04:18:52;;;;;;;13.77;8.95;;;;;;;;;;4998501;28;20502;-82
2023/03/23 04:21:18;;;;;;;13.52;8.73;;;;;;;;;;4998602;28;20018;-82
2023/03/23 04:23:44;;;;;;;12.63;9.13;;;;;;;;;;4997546;28;20026;-82
2023/03/23 04:26:12;;;;;;;14.93;10.23;;;;;;;;;;5009747;28;20037;-81
2023/03/23 04:28:38;;;;;;;13.05;8.95;;;;;;;;;;5000593;28;20026;-82
2023/03/23 04:31:04;;;;;;;13.35;8.65;;;;;;;;;;4997318;28;20108;-82
2023/03/23 04:33:30;;;;;;;11.50;8.45;;;;;;;;;;5015403;28;20398;-82
2023/03/23 04:36:00;;;;;;;13.63;9.35;;;;;;;;;;5017579;28;20029;-82
2023/03/23 04:38:27;;;;;;;15.20;9.30;;;;;;;;;;5003907;28;20084;-82
2023/03/23 04:40:54;;;;;;;14.18;9.07;;;;;;;;;;5014529;28;20033;-82
2023/03/23 04:43:22;;;;;;;12.02;8.45;;;;;;;;;;5016094;28;20018;-82
2023/03/23 04:45:55;;;;;;;12.32;8.68;;;;;;;;;;5018189;28;20027;-82
2023/03/23 04:48:22;;;;;;;14.43;9.68;;;;;;;;;;5015665;28;20436;-82
2023/03/23 04:50:50;;;;;;;12.73;9.43;;;;;;;;;;5009398;28;20109;-82
2023/03/23 04:53:17;;;;;;;12.88;8.73;;;;;;;;;;4995877;28;20058;-82
2023/03/23 04:55:44;;;;;;;14.00;9.07;;;;;;;;;;4998145;28;20049;-82
2023/03/23 04:58:12;;;;;;;11.80;8.77;;;;;;;;;;4999289;28;20026;-82
2023/03/23 05:00:38;;;;;;;14.10;8.77;;;;;;;;;;5011649;28;20052;-82
2023/03/23 05:03:04;;;;;;;14.52;10.00;;;;;;;;;;5006887;28;20152;-82
2023/03/23 05:05:31;;;;;;;14.52;9.38;;;;;;;;;;5001421;28;20061;-82
2023/03/23 05:07:58;;;;;;;14.05;9.00;;;;;;;;;;4997308;28;20084;-82
2023/03/23 05:10:24;;;;;;;14.88;10.00;;;;;;;;;;5015466;28;20049;-82
2023/03/23 05:12:50;;;;;;;13.25;9.05;;;;;;;;;;5001063;28;20022;-81
2023/03/23 05:15:16;;;;;;;15.27;9.70;;;;;;;;;;5016396;28;20121;-82
2023/03/23 05:17:48;;;;;;;15.85;10.00;;;;;;;;;;5002474;28;20018;-82
2023/03/23 05:20:18;;;;;;;14.30;8.68;;;;;;;;;;4999750;28;20019;-82
2023/03/23 05:22:44;;;;;;;18.42;10.40;;;;;;;;;;5012296;28;20057;-82
2023/03/23 05:25:10;;;;;;;13.10;9.95;;;;;;;;;;5014869;28;20037;-82
2023/03/23 05:27:37;;;;;;;14.82;9.50;;;;;;;;;;5009131;28;20425;-81
2023/03/23 05:30:04;;;;;;;15.32;10.23;;;;;;;;;;5003749;28;20025;-81
2023/03/23 05:32:30;;;;;;;17.52;11.05;;;;;;;;;;5010588;28;20037;-81
2023/03/23 05:35:00;;;;;;;16.05;11.23;;;;;;;;;;5010067;28;20034;-81
2023/03/23 05:37:28;;;;;;;14.90;10.27;;;;;;;;;;4995992;28;20019;-81
2023/03/23 05:39:55;;;;;;;21.48;12.30;;;;;;;;;;4997294;28;20025;-81
2023/03/23 05:42:22;;;;;;;20.95;12.70;;;;;;;;;;5003153;28;20022;-82
2023/03/23 05:44:48;;;;;;;20.00;13.45;;;;;;;;;;5007515;28;20302;-81
2023/03/23 05:47:14;;;;;;;23.90;13.80;;;;;;;;;;5006476;28;20501;-81
2023/03/23 05:49:40;;;;;;;20.52;13.45;;;;;;;;;;5022549;28;20089;-80
2023/03/23 05:52:07;;;;;;;22.70;13.25;;;;;;;;;;5009822;28;20020;-81
2023/03/23 05:54:34;;;;;;;19.52;12.80;;;;;;;;;;5011531;28;20018;-81
2023/03/23 05:57:00;;;;;;;22.80;13.73;;;;;;;;;;5003923;28;20041;-81
2023/03/23 05:59:26;;;;;;;22.20;13.68;;;;;;;;;;5006132;28;20026;-81
2023/03/23 06:01:57;;;;;;;22.10;13.80;;;;;;;;;;5010518;28;20105;-81
2023/03/23 06:04:24;;;;;;;29.05;13.55;;;;;;;;;;5001080;28;20441;-81
2023/03/23 06:06:51;;;;;;;21.52;12.80;;;;;;;;;;5012473;28;20076;-81
2023/03/23 06:09:17;;;;;;;32.25;14.20;;;;;;;;;;5010091;28;20034;-81
2023/03/23 06:11:44;;;;;;;23.55;12.98;;;;;;;;;;5005397;28;20133;-82
2023/03/23 06:14:10;;;;;;;19.27;13.23;;;;;;;;;;5000644;28;20071;-81
2023/03/23 06:16:36;;;;;;;19.70;13.60;;;;;;;;;;5005469;28;20022;-83
2023/03/23 06:19:03;;;;;;;21.50;12.68;;;;;;;;;;5003817;28;20064;-84
2023/03/23 06:21:30;;;;;;;19.10;11.48;;;;;;;;;;5014825;28;20022;-84
2023/03/23 06:23:56;;;;;;;32.92;15.43;;;;;;;;;;5006304;28;20334;-84
2023/03/23 06:26:23;;;;;;;25.55;13.43;;;;;;;;;;5027198;28;20037;-84
2023/03/23 06:28:50;;;;;;;22.60;14.32;;;;;;;;;;5021665;28;20120;-84
2023/03/23 06:31:17;;;;;;;22.08;13.75;;;;;;;;;;5016874;28;20445;-85
2023/03/23 06:33:43;;;;;;;19.67;17.52;;;;;;;;;;5018316;28;20033;-84
2023/03/23 06:36:11;;;;;;;23.73;14.05;;;;;;;;;;5016995;28;20053;-84
2023/03/23 06:38:37;;;;;;;20.75;13.80;;;;;;;;;;5013517;28;20018;-85
2023/03/23 06:41:04;;;;;;;18.80;12.70;;;;;;;;;;4999619;28;20046;-84
2023/03/23 06:43:30;;;;;;;18.05;12.82;;;;;;;;;;5019225;28;20025;-84
2023/03/23 06:45:59;;;;;;;20.98;13.27;;;;;;;;;;5020425;28;20034;-84
2023/03/23 06:48:26;;;;;;;18.75;12.13;;;;;;;;;;5019795;28;20093;-83
2023/03/23 06:50:52;;;;;;;17.45;12.68;;;;;;;;;;5023787;28;20104;-83
2023/03/23 06:53:20;;;;;;;19.92;13.32;;;;;;;;;;5002777;28;20065;-83
2023/03/23 06:55:46;;;;;;;16.20;12.40;;;;;;;;;;4999115;28;20026;-83
2023/03/23 06:58:13;;;;;;;17.33;11.77;;;;;;;;;;5007238;28;20022;-84
2023/03/23 07:00:40;;;;;;;16.88;12.10;;;;;;;;;;5020112;28;20025;-83
2023/03/23 07:03:06;;;;;;;17.60;10.95;;;;;;;;;;5002990;28;20140;-84
2023/03/23 07:05:34;;;;;;;19.75;11.57;;;;;;;;;;4998985;28;20561;-84
2023/03/23 07:08:00;;;;;;;15.00;11.10;;;;;;;;;;5007534;28;20034;-83
2023/03/23 07:10:26;;;;;;;16.23;11.10;;;;;;;;;;5024624;28;20062;-84
2023/03/23 07:12:52;;;;;;;17.08;11.35;;;;;;;;;;5006512;28;20483;-84
2023/03/23 07:15:18;;;;;;;16.52;10.93;;;;;;;;;;4999187;28;20027;-83
2023/03/23 07:17:45;;;;;;;15.90;11.52;;;;;;;;;;5016060;28;20037;-83
2023/03/23 07:20:11;;;;;;;17.70;10.82;;;;;;;;;;5004241;28;20034;-84
2023/03/23 07:22:38;;;;;;;22.98;11.23;;;;;;;;;;5000971;28;20042;-84
2023/03/23 07:25:04;;;;;;;18.60;11.60;;;;;;;;;;5000315;28;20160;-84
2023/03/23 07:27:30;;;;;;;21.73;11.25;;;;;;;;;;5000019;28;20092;-84
2023/03/23 07:29:57;;;;;;;17.42;11.90;;;;;;;;;;5009052;28;20037;-84
2023/03/23 07:32:24;;;;;;;16.33;11.18;;;;;;;;;;5011881;28;20080;-84
2023/03/23 07:34:50;;;;;;;16.95;10.98;;;;;;;;;;5010991;28;20026;-84
2023/03/23 07:37:16;;;;;;;19.67;12.20;;;;;;;;;;5000306;28;20037;-84
2023/03/23 07:39:42;;;;;;;17.45;12.10;;;;;;;;;;5000096;28;20029;-82
2023/03/23 07:42:09;;;;;;;15.38;11.50;;;;;;;;;;5015549;28;20038;-84
2023/03/23 07:44:35;;;;;;;15.88;11.13;;;;;;;;;;5002934;28;20035;-84
2023/03/23 07:47:01;;;;;;;17.23;11.75;;;;;;;;;;5003519;28;20018;-83
2023/03/23 07:49:27;;;;;;;16.98;11.20;;;;;;;;;;5006879;28;20027;-82
2023/03/23 07:51:53;;;;;;;15.35;11.57;;;;;;;;;;5019758;28;20030;-84
2023/03/23 07:54:19;;;;;;;16.15;11.30;;;;;;;;;;5023670;28;20044;-83
2023/03/23 07:56:45;;;;;;;20.45;11.45;;;;;;;;;;5003077;28;20033;-83
2023/03/23 07:59:12;;;;;;;19.83;11.88;;;;;;;;;;5002582;28;20041;-83
2023/03/23 08:01:38;;;;;;;14.85;11.13;;;;;;;;;;5000534;28;20505;-83
2023/03/23 08:04:05;;;;;;;23.30;13.48;;;;;;;;;;4998998;28;20052;-83
2023/03/23 08:09:34;;;;;;;15.68;12.00;;;;;;;;;;5013295;28;20044;-83
2023/03/23 08:12:00;;;;;;;16.70;11.90;;;;;;;;;;5015400;28;20059;-83
2023/03/23 08:14:28;;;;;;;17.80;11.75;;;;;;;;;;5016553;28;20032;-84
2023/03/23 08:16:55;;;;;;;16.80;12.73;;;;;;;;;;5011050;28;20502;-83
2023/03/23 08:19:21;;;;;;;15.77;12.10;;;;;;;;;;5002093;28;20034;-84
2023/03/23 08:21:48;;;;;;;16.52;11.40;;;;;;;;;;5017953;28;20018;-83
2023/03/23 08:24:14;;;;;;;20.05;11.82;;;;;;;;;;5003149;28;20022;-83
2023/03/23 08:26:41;;;;;;;17.58;12.00;;;;;;;;;;4999283;28;20085;-84
2023/03/23 08:29:08;;;;;;;19.00;12.00;;;;;;;;;;4999327;28;20010;-84
2023/03/23 08:31:37;;;;;;;15.82;11.27;;;;;;;;;;4998230;28;20483;-84
2023/03/23 08:34:04;;;;;;;16.15;11.45;;;;;;;;;;4998137;28;20030;-84
2023/03/23 08:36:31;;;;;;;18.08;11.88;;;;;;;;;;5006460;28;20121;-83
2023/03/23 08:38:58;;;;;;;18.67;11.00;;;;;;;;;;5000825;28;20014;-83
2023/03/23 08:41:24;;;;;;;18.73;11.40;;;;;;;;;;5018119;28;20022;-83
2023/03/23 08:43:51;;;;;;;16.23;11.45;;;;;;;;;;5016799;28;20033;-84
2023/03/23 08:46:19;;;;;;;15.15;11.85;;;;;;;;;;5012835;28;20057;-82
2023/03/23 08:48:45;;;;;;;13.70;10.88;;;;;;;;;;4998172;28;20525;-83
2023/03/23 08:51:11;;;;;;;14.40;10.85;;;;;;;;;;4998086;28;20033;-83
2023/03/23 08:53:38;;;;;;;15.98;11.45;;;;;;;;;;4999838;28;20418;-83
2023/03/23 08:56:07;;;;;;;17.92;11.43;;;;;;;;;;5011415;28;20033;-83
2023/03/23 08:58:34;;;;;;;14.38;10.88;;;;;;;;;;4998756;28;20030;-83
2023/03/23 09:01:00;;;;;;;14.48;10.98;;;;;;;;;;4997506;28;20023;-84
2023/03/23 09:03:27;;;;;;;14.82;11.05;;;;;;;;;;5001789;28;20042;-82
2023/03/23 09:05:53;;;;;;;16.42;11.27;;;;;;;;;;5012143;28;20026;-82
2023/03/23 09:08:19;;;;;;;14.43;10.65;;;;;;;;;;5018286;28;20030;-83
2023/03/23 09:10:45;;;;;;;15.18;10.20;;;;;;;;;;5011054;28;20038;-83
2023/03/23 09:13:11;;;;;;;15.00;9.85;;;;;;;;;;5016842;28;20075;-81
2023/03/23 09:15:37;;;;;;;16.23;10.63;;;;;;;;;;5009067;28;20448;-83
2023/03/23 09:18:04;;;;;;;17.00;10.13;;;;;;;;;;4999403;28;20090;-83
2023/03/23 09:20:30;;;;;;;13.38;10.30;;;;;;;;;;5012377;28;20021;-82
2023/03/23 09:22:57;;;;;;;13.45;10.18;;;;;;;;;;5016867;28;20072;-83
2023/03/23 09:25:25;;;;;;;15.55;10.13;;;;;;;;;;5016877;28;20053;-82
2023/03/23 09:27:53;;;;;;;15.70;10.13;;;;;;;;;;5000296;28;20542;-83
2023/03/23 09:30:19;;;;;;;13.25;10.25;;;;;;;;;;4999420;28;20031;-82
2023/03/23 09:32:47;;;;;;;19.50;10.70;;;;;;;;;;5009783;28;20494;-83
2023/03/23 09:35:14;;;;;;;16.45;11.73;;;;;;;;;;5007477;28;20453;-83
2023/03/23 09:37:40;;;;;;;15.00;10.63;;;;;;;;;;4997694;28;20018;-83
2023/03/23 09:40:10;;;;;;;16.05;10.50;;;;;;;;;;4997690;28;20023;-83
2023/03/23 09:42:42;;;;;;;13.65;10.07;;;;;;;;;;5004014;28;20445;-83
2023/03/23 09:45:28;;;;;;;15.52;10.13;;;;;;;;;;5011842;28;20498;-82
2023/03/23 09:48:03;;;;;;;15.18;10.18;;;;;;;;;;4998769;28;20026;-82
2023/03/23 09:50:32;;;;;;;14.10;10.38;;;;;;;;;;5002495;28;20023;-83
2023/03/23 09:53:17;;;;;;;13.20;9.43;;;;;;;;;;4998068;28;20030;-83
2023/03/23 09:55:45;;;;;;;14.60;10.65;;;;;;;;;;4999903;28;20042;-83
2023/03/23 09:58:19;;;;;;;14.95;10.43;;;;;;;;;;4998937;28;20030;-83
2023/03/23 10:01:08;;;;;;;13.50;10.32;;;;;;;;;;5008201;28;20533;-82
2023/03/23 10:03:45;;;;;;;15.20;11.13;;;;;;;;;;4997947;28;20042;-83
2023/03/23 10:06:12;;;;;;;13.18;9.52;;;;;;;;;;5000575;28;20036;-82
2023/03/23 10:08:42;;;;;;;18.90;11.27;;;;;;;;;;5014353;28;20037;-83
2023/03/23 10:11:23;;;;;;;13.90;10.15;;;;;;;;;;5004448;28;20079;-82
2023/03/23 10:14:06;;;;;;;13.95;9.82;;;;;;;;;;5009914;28;20030;-82
2023/03/23 10:16:32;;;;;;;;;;;;;;;;;;5011959;28;20034;-81
2023/03/23 10:19:17;;;;;;;13.48;10.52;;;;;;;;;;5002002;28;19909;-81
2023/03/23 10:21:51;;;;;;;15.35;10.40;;;;;;;;;;5006669;28;20025;-81
2023/03/23 10:24:20;;;;;;;15.13;11.02;;;;;;;;;;5001708;28;20030;-81
2023/03/23 10:26:55;;;;;;;13.88;11.48;;;;;;;;;;5012341;28;20041;-81
2023/03/23 10:29:23;;;;;;;15.70;10.73;;;;;;;;;;5016499;28;20034;-81
2023/03/23 10:32:09;;;;;;;15.00;10.95;;;;;;;;;;5007607;28;20021;-81
2023/03/23 10:34:41;;;;;;;13.57;10.10;;;;;;;;;;5016277;28;20143;-81
2023/03/23 10:37:25;;;;;;;13.95;9.77;;;;;;;;;;5017954;28;20070;-81
2023/03/23 10:39:54;;;;;;;13.43;10.15;;;;;;;;;;5020223;28;20022;-81
2023/03/23 10:42:28;;;;;;;13.90;9.43;;;;;;;;;;5008336;28;20019;-82
2023/03/23 10:44:56;;;;;;;13.68;9.60;;;;;;;;;;5009804;28;20038;-81
2023/03/23 10:47:22;;;;;;;12.15;8.75;;;;;;;;;;5023002;28;20030;-82
2023/03/23 10:49:50;;;;;;;11.48;8.52;;;;;;;;;;5022018;28;20026;-83
2023/03/23 10:52:19;;;;;;;12.45;8.73;;;;;;;;;;5012386;28;20114;-82
2023/03/23 10:55:11;;;;;;;12.88;8.82;;;;;;;;;;5021092;28;20041;-82
2023/03/23 10:57:39;;;;;;;14.98;9.73;;;;;;;;;;5007700;28;20046;-83
2023/03/23 11:00:06;;;;;;;14.90;8.48;;;;;;;;;;5000045;28;20367;-81
2023/03/23 11:02:37;;;;;;;14.27;9.60;;;;;;;;;;5003683;28;20141;-82
2023/03/23 11:05:05;;;;;;;13.43;8.95;;;;;;;;;;5017625;28;20040;-81
2023/03/23 11:07:32;;;;;;;14.05;9.07;;;;;;;;;;5026574;28;20022;-81
2023/03/23 11:10:08;;;;;;;13.70;9.75;;;;;;;;;;5022493;28;20030;-81
2023/03/23 11:12:35;;;;;;;10.82;8.57;;;;;;;;;;5006757;28;20029;-82
2023/03/23 11:15:22;;;;;;;10.95;8.00;;;;;;;;;;5018327;28;20022;-82
2023/03/23 11:17:59;;;;;;;12.52;9.13;;;;;;;;;;5010690;28;20042;-82
2023/03/23 11:20:26;;;;;;;12.32;8.07;;;;;;;;;;5003862;28;20490;-81
2023/03/23 11:22:52;;;;;;;12.98;8.38;;;;;;;;;;5003818;28;20023;-81
2023/03/23 11:25:18;;;;;;;13.60;8.30;;;;;;;;;;5005068;28;20077;-81
2023/03/23 11:27:45;;;;;;;15.23;9.63;;;;;;;;;;5007639;28;20050;-81
2023/03/23 11:30:11;;;;;;;11.32;8.50;;;;;;;;;;5004588;28;20100;-81
2023/03/23 11:32:37;;;;;;;13.32;8.10;;;;;;;;;;5007225;28;20030;-81
2023/03/23 11:35:05;;;;;;;11.77;8.77;;;;;;;;;;4999619;28;20076;-82
2023/03/23 11:37:36;;;;;;;12.18;8.77;;;;;;;;;;5002451;28;20540;-82
2023/03/23 11:40:15;;;;;;;12.65;8.90;;;;;;;;;;5016545;28;20029;-83
2023/03/23 11:42:43;;;;;;;17.55;9.02;;;;;;;;;;5012100;28;20516;-82
2023/03/23 11:45:16;;;;;;;15.25;9.35;;;;;;;;;;5003518;28;20052;-82
2023/03/23 11:47:54;;;;;;;13.23;9.45;;;;;;;;;;5017765;28;20380;-82
2023/03/23 11:50:40;;;;;;;12.40;8.18;;;;;;;;;;5004323;28;20030;-82
2023/03/23 11:53:06;;;;;;;12.23;7.93;;;;;;;;;;5007011;28;20080;-82
2023/03/23 11:55:52;;;;;;;12.65;8.05;;;;;;;;;;5016217;28;20293;-82
2023/03/23 11:58:19;;;;;;;10.60;8.30;;;;;;;;;;5010035;28;20036;-82
2023/03/23 12:00:54;;;;;;;14.43;8.75;;;;;;;;;;5018195;28;20502;-82
2023/03/23 12:03:34;;;;;;;15.57;8.48;;;;;;;;;;5009233;28;20514;-81
2023/03/23 12:06:00;;;;;;;12.55;7.45;;;;;;;;;;5002875;28;20117;-81
2023/03/23 12:08:35;;;;;;;12.40;7.28;;;;;;;;;;4995061;28;20270;-82
2023/03/23 12:11:16;;;;;;;12.07;7.20;;;;;;;;;;4995919;28;20029;-82
2023/03/23 12:14:14;;;;;;;11.85;6.78;;;;;;;;;;5002651;28;20100;-82
2023/03/23 12:16:46;;;;;;;12.55;7.55;;;;;;;;;;5001892;28;20044;-80
2023/03/23 12:19:13;;;;;;;11.43;7.05;;;;;;;;;;4999820;28;20039;-81
2023/03/23 12:21:59;;;;;;;11.68;7.65;;;;;;;;;;4995017;28;20053;-81
2023/03/23 12:24:25;;;;;;;11.48;7.22;;;;;;;;;;5005885;28;20053;-81
2023/03/23 12:27:03;;;;;;;11.35;7.10;;;;;;;;;;5011665;28;20060;-81
2023/03/23 12:29:29;;;;;;;12.68;7.63;;;;;;;;;;5009353;28;20052;-80
2023/03/23 12:32:14;;;;;;;9.25;6.90;;;;;;;;;;5006783;28;20056;-81
2023/03/23 12:34:40;;;;;;;11.75;7.38;;;;;;;;;;4999841;28;20038;-81
2023/03/23 12:37:08;;;;;;;11.85;7.15;;;;;;;;;;4996496;28;20117;-81
2023/03/23 12:39:37;;;;;;;10.85;7.68;;;;;;;;;;4994271;28;20049;-81
2023/03/23 12:42:15;;;;;;;11.90;7.30;;;;;;;;;;5003271;28;20092;-82
2023/03/23 12:44:46;;;;;;;10.23;7.00;;;;;;;;;;5006730;28;20112;-81
2023/03/23 12:47:25;;;;;;;11.13;7.35;;;;;;;;;;4997419;28;20041;-80
2023/03/23 12:49:56;;;;;;;11.50;7.65;;;;;;;;;;4995559;28;20034;-82
2023/03/23 12:52:26;;;;;;;10.77;7.10;;;;;;;;;;5003355;28;20041;-81
2023/03/23 12:54:55;;;;;;;10.38;6.85;;;;;;;;;;5038735;28;20484;-82
2023/03/23 12:57:32;;;;;;;10.45;7.03;;;;;;;;;;5017771;28;20022;-82
2023/03/23 13:00:10;;;;;;;10.70;6.35;;;;;;;;;;5001361;28;20027;-83
2023/03/23 13:02:40;;;;;;;17.40;7.60;;;;;;;;;;5007243;28;20042;-80
2023/03/23 13:05:13;;;;;;;9.50;6.45;;;;;;;;;;5016644;28;20029;-81
2023/03/23 13:07:45;;;;;;;8.02;6.28;;;;;;;;;;5015805;28;20026;-83
2023/03/23 13:10:20;;;;;;;9.45;5.82;;;;;;;;;;5001830;28;20041;-83
2023/03/23 13:12:48;;;;;;;9.18;5.80;;;;;;;;;;5011474;28;20022;-82
2023/03/23 13:15:27;;;;;;;12.93;6.13;;;;;;;;;;5003007;28;20029;-83
2023/03/23 13:17:59;;;;;;;9.13;6.15;;;;;;;;;;5008458;28;20026;-82
2023/03/23 13:20:38;;;;;;;9.02;6.75;;;;;;;;;;5021990;28;20433;-83
2023/03/23 13:23:16;;;;;;;8.10;6.07;;;;;;;;;;5005116;28;20030;-82
2023/03/23 13:25:57;;;;;;;7.70;5.57;;;;;;;;;;5013172;28;20108;-82
2023/03/23 13:28:25;;;;;;;9.38;5.40;;;;;;;;;;5011043;28;20073;-83
2023/03/23 13:30:56;;;;;;;12.40;5.95;;;;;;;;;;4996278;28;20018;-82
2023/03/23 13:33:22;;;;;;;8.75;5.85;;;;;;;;;;4995854;28;20077;-81
2023/03/23 13:35:50;;;;;;;7.53;5.22;;;;;;;;;;4995996;28;20034;-82
2023/03/23 13:38:24;;;;;;;8.82;5.82;;;;;;;;;;5011183;28;20022;-82
2023/03/23 13:40:51;;;;;;;9.25;6.80;;;;;;;;;;5003093;28;20021;-82
2023/03/23 13:43:34;;;;;;;12.10;5.88;;;;;;;;;;4996508;28;20478;-82
2023/03/23 13:46:00;;;;;;;;;;;;;;;;;;4997733;28;20098;-83
2023/03/23 13:48:26;;;;;;;8.25;5.55;;;;;;;;;;5012684;28;19953;-82
2023/03/23 13:50:54;;;;;;;8.93;5.70;;;;;;;;;;4996136;28;20018;-82
2023/03/23 13:53:32;;;;;;;10.88;5.82;;;;;;;;;;5001106;28;20054;-83
2023/03/23 13:56:19;;;;;;;9.88;6.80;;;;;;;;;;5018417;28;20022;-83
2023/03/23 13:58:56;;;;;;;8.52;5.65;;;;;;;;;;4994808;28;20031;-82
2023/03/23 14:01:32;;;;;;;8.68;5.63;;;;;;;;;;5003853;28;20026;-81
2023/03/23 14:04:00;;;;;;;8.55;5.78;;;;;;;;;;5015800;28;20084;-82
2023/03/23 14:06:26;;;;;;;8.13;5.68;;;;;;;;;;5014032;28;20092;-81
2023/03/23 14:08:54;;;;;;;7.43;5.95;;;;;;;;;;5017923;28;20026;-82
2023/03/23 14:11:25;;;;;;;8.18;6.07;;;;;;;;;;5005692;28;20026;-82
2023/03/23 14:13:51;;;;;;;8.65;6.10;;;;;;;;;;5013379;28;20088;-82
2023/03/23 14:16:17;;;;;;;10.57;6.68;;;;;;;;;;5018241;28;20436;-81
2023/03/23 14:18:49;;;;;;;8.68;6.43;;;;;;;;;;4999354;28;20035;-81
2023/03/23 14:21:17;;;;;;;9.18;6.00;;;;;;;;;;4998312;28;20027;-82
2023/03/23 14:23:43;;;;;;;10.18;6.28;;;;;;;;;;5003181;28;20395;-82
2023/03/23 14:26:16;;;;;;;9.48;5.78;;;;;;;;;;5013877;28;20062;-82
2023/03/23 14:28:43;;;;;;;7.00;4.78;;;;;;;;;;5014470;28;20179;-82
2023/03/23 14:31:16;;;;;;;6.93;3.70;;;;;;;;;;5002938;28;20073;-82
2023/03/23 14:33:42;;;;;;;;;;;;;;;;;;5006932;28;20487;-82
2023/03/23 14:36:08;;;;;;;6.82;3.70;;;;;;;;;;5001825;28;19920;-81
2023/03/23 14:38:34;;;;;;;6.28;3.47;;;;;;;;;;5024657;28;20030;-82
2023/03/23 14:41:02;;;;;;;5.15;3.55;;;;;;;;;;5025299;28;20371;-83
2023/03/23 14:43:28;;;;;;;7.57;4.13;;;;;;;;;;5024170;28;20014;-82